Time;durP1;ratioP1;P1;durP2;ratioP2;P2;SDS_P1;SDS_P2;PMS_P1;PMS_P2;Temp;Humidity;BMP_temperature;BMP_pressure;BME280_temperature;BME280_humidity;BME280_pressure;Samples;Min_cycle;Max_cycle;Signal;HPM_P1;HPM_P2
2024/04/17 00:00:00;;;;;;;3.20;2.40;;;;;;;;;;5303396;26;20292;-84
2024/04/17 00:02:26;;;;;;;3.23;2.60;;;;;;;;;;5326675;26;20357;-83
2024/04/17 00:04:56;;;;;;;3.10;2.50;;;;;;;;;;5302939;26;20254;-84
2024/04/17 00:07:26;;;;;;;4.17;2.67;;;;;;;;;;5307457;26;20278;-84
2024/04/17 00:09:53;;;;;;;2.70;2.50;;;;;;;;;;5268713;26;20278;-83
2024/04/17 00:12:23;;;;;;;2.60;2.40;;;;;;;;;;5276879;26;20297;-85
2024/04/17 00:14:49;;;;;;;3.00;2.57;;;;;;;;;;5303080;26;20281;-83
2024/04/17 00:17:18;;;;;;;4.70;2.70;;;;;;;;;;5309999;26;20267;-83
2024/04/17 00:19:44;;;;;;;3.50;2.73;;;;;;;;;;5310321;26;20264;-84
2024/04/17 00:22:10;;;;;;;3.83;2.93;;;;;;;;;;5294210;26;20263;-84
2024/04/17 00:24:35;;;;;;;2.80;2.60;;;;;;;;;;5338333;26;20315;-84
2024/04/17 00:27:01;;;;;;;3.30;3.00;;;;;;;;;;5304591;26;20247;-81
2024/04/17 00:29:28;;;;;;;3.67;3.30;;;;;;;;;;5306289;26;20256;-84
2024/04/17 00:31:58;;;;;;;4.23;3.13;;;;;;;;;;5306159;26;20277;-84
2024/04/17 00:34:24;;;;;;;4.83;3.17;;;;;;;;;;5301281;26;20348;-84
2024/04/17 00:36:49;;;;;;;3.27;3.00;;;;;;;;;;5306413;26;20276;-83
2024/04/17 00:39:19;;;;;;;5.13;3.00;;;;;;;;;;5340589;26;20259;-84
2024/04/17 00:41:45;;;;;;;3.70;2.93;;;;;;;;;;5301662;26;20771;-83
2024/04/17 00:44:13;;;;;;;4.13;3.13;;;;;;;;;;5339219;26;20266;-84
2024/04/17 00:46:39;;;;;;;5.43;3.37;;;;;;;;;;5306663;26;20628;-85
2024/04/17 00:49:04;;;;;;;4.97;3.20;;;;;;;;;;5281567;26;20267;-83
2024/04/17 00:51:31;;;;;;;3.50;3.23;;;;;;;;;;5272262;26;20304;-83
2024/04/17 00:53:59;;;;;;;3.57;3.27;;;;;;;;;;5301390;26;20262;-83
2024/04/17 00:56:26;;;;;;;3.60;2.83;;;;;;;;;;5328273;26;20267;-84
2024/04/17 00:58:53;;;;;;;3.90;3.30;;;;;;;;;;5301165;26;20369;-84
2024/04/17 01:01:21;;;;;;;3.73;3.10;;;;;;;;;;5340712;26;20302;-83
2024/04/17 01:03:49;;;;;;;4.37;3.27;;;;;;;;;;5323978;26;20308;-82
2024/04/17 01:06:19;;;;;;;3.87;3.10;;;;;;;;;;5328674;26;20468;-83
2024/04/17 01:08:49;;;;;;;4.00;3.20;;;;;;;;;;5350327;26;20255;-82
2024/04/17 01:11:17;;;;;;;3.80;3.50;;;;;;;;;;5340595;26;20264;-82
2024/04/17 01:13:43;;;;;;;3.40;3.10;;;;;;;;;;5303202;26;20924;-83
2024/04/17 01:16:08;;;;;;;4.20;3.30;;;;;;;;;;5329289;26;20314;-84
2024/04/17 01:18:36;;;;;;;3.87;3.13;;;;;;;;;;5273898;26;20264;-84
2024/04/17 01:21:05;;;;;;;4.33;3.60;;;;;;;;;;5304547;26;20302;-84
2024/04/17 01:23:30;;;;;;;3.90;3.13;;;;;;;;;;5254002;26;20915;-82
2024/04/17 01:25:56;;;;;;;3.40;3.10;;;;;;;;;;5304356;26;20259;-82
2024/04/17 01:28:24;;;;;;;3.37;3.07;;;;;;;;;;5282223;26;20323;-83
2024/04/17 01:30:52;;;;;;;3.30;3.00;;;;;;;;;;5302094;26;20255;-84
2024/04/17 01:33:21;;;;;;;3.37;3.07;;;;;;;;;;5313896;26;20360;-83
2024/04/17 01:35:46;;;;;;;5.50;3.47;;;;;;;;;;5263953;26;20264;-83
2024/04/17 01:38:12;;;;;;;3.63;3.33;;;;;;;;;;5303902;26;20771;-84
2024/04/17 01:40:37;;;;;;;3.80;3.50;;;;;;;;;;5334927;26;20289;-82
2024/04/17 01:43:05;;;;;;;4.77;2.93;;;;;;;;;;5301787;26;20296;-84
2024/04/17 01:45:30;;;;;;;3.87;3.00;;;;;;;;;;5270337;26;20755;-84
2024/04/17 01:47:56;;;;;;;3.53;3.23;;;;;;;;;;5308094;26;20289;-83
2024/04/17 01:50:30;;;;;;;4.07;3.07;;;;;;;;;;5286637;26;20259;-84
2024/04/17 01:52:55;;;;;;;3.77;3.47;;;;;;;;;;5309890;26;20612;-84
2024/04/17 01:55:23;;;;;;;4.70;3.23;;;;;;;;;;5312207;26;20282;-85
2024/04/17 01:57:51;;;;;;;4.13;3.07;;;;;;;;;;5304787;26;20784;-82
2024/04/17 02:00:17;;;;;;;4.43;3.60;;;;;;;;;;5306368;26;20595;-84
2024/04/17 02:02:42;;;;;;;3.60;3.30;;;;;;;;;;5298145;26;20255;-83
2024/04/17 02:05:10;;;;;;;4.63;3.77;;;;;;;;;;5302089;26;20287;-84
2024/04/17 02:07:35;;;;;;;4.53;3.53;;;;;;;;;;5314252;26;20390;-83
2024/04/17 02:10:01;;;;;;;5.27;3.83;;;;;;;;;;5305935;26;20255;-84
2024/04/17 02:12:27;;;;;;;3.73;3.10;;;;;;;;;;5313220;26;20774;-85
2024/04/17 02:14:55;;;;;;;3.83;3.53;;;;;;;;;;5294562;26;20268;-85
2024/04/17 02:17:20;;;;;;;4.77;3.40;;;;;;;;;;5306380;26;20304;-83
2024/04/17 02:19:51;;;;;;;4.37;3.80;;;;;;;;;;5302348;26;20274;-83
2024/04/17 02:22:19;;;;;;;4.07;3.70;;;;;;;;;;5338724;26;20767;-82
2024/04/17 02:24:47;;;;;;;4.43;3.90;;;;;;;;;;5337648;26;20491;-83
2024/04/17 02:27:15;;;;;;;4.40;4.00;;;;;;;;;;5333079;26;20268;-83
2024/04/17 02:29:40;;;;;;;7.63;4.80;;;;;;;;;;5335772;26;20333;-82
2024/04/17 02:32:07;;;;;;;6.40;5.30;;;;;;;;;;5329019;26;20358;-84
2024/04/17 02:34:32;;;;;;;5.23;4.73;;;;;;;;;;5300986;26;20267;-84
2024/04/17 02:37:00;;;;;;;5.87;4.57;;;;;;;;;;5301591;26;20276;-84
2024/04/17 02:39:29;;;;;;;6.40;4.43;;;;;;;;;;5301329;26;20286;-85
2024/04/17 02:41:57;;;;;;;5.50;4.77;;;;;;;;;;5325363;26;20255;-83
2024/04/17 02:44:22;;;;;;;4.80;4.40;;;;;;;;;;5311932;26;20776;-84
2024/04/17 02:46:48;;;;;;;5.83;5.20;;;;;;;;;;5309693;26;20259;-83
2024/04/17 02:49:15;;;;;;;5.30;4.80;;;;;;;;;;5293971;26;20264;-84
2024/04/17 02:51:42;;;;;;;5.43;4.83;;;;;;;;;;5297321;26;20327;-84
2024/04/17 02:54:10;;;;;;;6.50;4.70;;;;;;;;;;5329018;26;20259;-82
2024/04/17 02:56:38;;;;;;;5.57;5.00;;;;;;;;;;5299634;26;20339;-84
2024/04/17 02:59:06;;;;;;;5.63;4.90;;;;;;;;;;5296949;26;20294;-84
2024/04/17 03:01:31;;;;;;;5.93;4.87;;;;;;;;;;5273023;26;20309;-84
2024/04/17 03:03:59;;;;;;;5.67;5.17;;;;;;;;;;5340507;26;20258;-84
2024/04/17 03:06:32;;;;;;;5.67;5.10;;;;;;;;;;5296816;26;20255;-84
2024/04/17 03:08:58;;;;;;;5.50;5.00;;;;;;;;;;5303155;26;20251;-83
2024/04/17 03:11:26;;;;;;;8.20;4.77;;;;;;;;;;5339409;26;20764;-83
2024/04/17 03:13:52;;;;;;;8.03;4.50;;;;;;;;;;5291355;26;20862;-83
2024/04/17 03:16:17;;;;;;;7.20;4.87;;;;;;;;;;5275480;26;20278;-82
2024/04/17 03:18:46;;;;;;;6.37;4.40;;;;;;;;;;5279645;26;20263;-83
2024/04/17 03:21:11;;;;;;;8.20;4.50;;;;;;;;;;5296387;26;20341;-82
2024/04/17 03:23:37;;;;;;;5.17;4.67;;;;;;;;;;5296764;26;20272;-84
2024/04/17 03:26:05;;;;;;;6.90;4.77;;;;;;;;;;5335221;26;20266;-84
2024/04/17 03:28:30;;;;;;;5.50;4.30;;;;;;;;;;5340005;26;20258;-84
2024/04/17 03:30:59;;;;;;;5.70;4.83;;;;;;;;;;5334101;26;20259;-82
2024/04/17 03:33:25;;;;;;;6.83;4.70;;;;;;;;;;5339360;26;20297;-82
2024/04/17 03:35:59;;;;;;;8.23;5.00;;;;;;;;;;5305054;26;20603;-83
2024/04/17 03:38:25;;;;;;;5.80;4.60;;;;;;;;;;5323867;26;20642;-82
2024/04/17 03:40:51;;;;;;;5.37;4.60;;;;;;;;;;5328363;26;20262;-82
2024/04/17 03:43:16;;;;;;;6.43;4.63;;;;;;;;;;5332308;26;20779;-82
2024/04/17 03:45:44;;;;;;;4.93;4.43;;;;;;;;;;5280073;26;20294;-83
2024/04/17 03:48:10;;;;;;;6.47;5.10;;;;;;;;;;5294500;26;20262;-84
2024/04/17 03:50:35;;;;;;;5.10;4.70;;;;;;;;;;5311944;26;20259;-82
2024/04/17 03:53:01;;;;;;;5.87;5.23;;;;;;;;;;5306019;26;20271;-84
2024/04/17 03:55:28;;;;;;;5.10;4.60;;;;;;;;;;5311686;26;20355;-82
2024/04/17 04:01:40;;;;;;;6.40;5.07;;;;;;;;;;5336484;26;20290;-83
2024/04/17 04:04:09;;;;;;;5.03;4.63;;;;;;;;;;5277203;26;20311;-82
2024/04/17 04:06:37;;;;;;;5.83;5.00;;;;;;;;;;5285952;26;20271;-83
2024/04/17 04:09:04;;;;;;;8.33;4.70;;;;;;;;;;5269877;26;20255;-84
2024/04/17 04:11:32;;;;;;;5.90;4.70;;;;;;;;;;5314938;26;20716;-84
2024/04/17 04:13:58;;;;;;;7.37;5.17;;;;;;;;;;5314582;26;20267;-84
2024/04/17 04:16:23;;;;;;;6.67;5.03;;;;;;;;;;5313826;26;20281;-82
2024/04/17 04:18:49;;;;;;;5.47;5.00;;;;;;;;;;5300699;26;20255;-83
2024/04/17 04:21:14;;;;;;;6.03;5.10;;;;;;;;;;5334787;26;20297;-85
2024/04/17 04:23:40;;;;;;;6.03;4.97;;;;;;;;;;5310259;26;20433;-82
2024/04/17 04:26:05;;;;;;;5.57;4.67;;;;;;;;;;5299399;26;20283;-83
2024/04/17 04:28:31;;;;;;;5.43;4.90;;;;;;;;;;5313131;26;20255;-83
2024/04/17 04:30:58;;;;;;;6.53;4.87;;;;;;;;;;5272827;26;20251;-82
2024/04/17 04:33:24;;;;;;;5.33;4.80;;;;;;;;;;5334730;26;20528;-83
2024/04/17 04:35:49;;;;;;;5.17;4.67;;;;;;;;;;5337297;26;20772;-84
2024/04/17 04:38:15;;;;;;;5.23;4.70;;;;;;;;;;5328751;26;20271;-84
2024/04/17 04:40:41;;;;;;;5.27;4.87;;;;;;;;;;5339878;26;20282;-84
2024/04/17 04:43:10;;;;;;;6.67;5.23;;;;;;;;;;5344142;26;20297;-85
2024/04/17 04:45:38;;;;;;;5.97;4.73;;;;;;;;;;5312984;26;20331;-84
2024/04/17 04:48:06;;;;;;;5.93;5.30;;;;;;;;;;5367781;26;20298;-85
2024/04/17 04:50:34;;;;;;;5.30;4.80;;;;;;;;;;5306251;26;20259;-85
2024/04/17 04:52:59;;;;;;;5.50;5.00;;;;;;;;;;5320156;26;20286;-84
2024/04/17 04:55:27;;;;;;;8.13;5.27;;;;;;;;;;5307318;26;20255;-81
2024/04/17 04:57:53;;;;;;;6.50;5.10;;;;;;;;;;5289189;26;20273;-84
2024/04/17 05:00:19;;;;;;;8.57;5.30;;;;;;;;;;5338165;26;20308;-83
2024/04/17 05:02:45;;;;;;;6.50;5.00;;;;;;;;;;5345329;26;20343;-85
2024/04/17 05:05:13;;;;;;;7.43;5.60;;;;;;;;;;5304973;26;20264;-84
2024/04/17 05:07:38;;;;;;;6.77;5.83;;;;;;;;;;5284667;26;20251;-84
2024/04/17 05:10:06;;;;;;;6.50;5.30;;;;;;;;;;5286754;26;20768;-84
2024/04/17 05:12:34;;;;;;;7.87;6.40;;;;;;;;;;5317375;26;20259;-85
2024/04/17 05:15:00;;;;;;;9.67;6.10;;;;;;;;;;5312246;26;20297;-82
2024/04/17 05:17:25;;;;;;;8.17;5.80;;;;;;;;;;5353529;26;20333;-85
2024/04/17 05:19:51;;;;;;;7.50;6.33;;;;;;;;;;5282879;26;20264;-84
2024/04/17 05:22:19;;;;;;;8.67;6.27;;;;;;;;;;5304571;26;20264;-83
2024/04/17 05:24:44;;;;;;;7.17;6.00;;;;;;;;;;5284164;26;20277;-83
2024/04/17 05:27:10;;;;;;;7.33;5.07;;;;;;;;;;5361887;26;20320;-83
2024/04/17 05:29:35;;;;;;;6.33;5.53;;;;;;;;;;5304150;26;20248;-84
2024/04/17 05:32:03;;;;;;;6.17;5.13;;;;;;;;;;5301957;26;20745;-83
2024/04/17 05:34:33;;;;;;;6.67;5.13;;;;;;;;;;5310242;26;20256;-84
2024/04/17 05:36:59;;;;;;;6.97;5.30;;;;;;;;;;5307264;26;20251;-82
2024/04/17 05:39:26;;;;;;;6.27;5.20;;;;;;;;;;5312866;26;20247;-84
2024/04/17 05:41:51;;;;;;;9.33;5.33;;;;;;;;;;5316539;26;20258;-84
2024/04/17 05:44:17;;;;;;;8.80;5.40;;;;;;;;;;5287459;26;20303;-84
2024/04/17 05:46:42;;;;;;;7.40;5.23;;;;;;;;;;5304423;26;20319;-84
2024/04/17 05:49:08;;;;;;;7.23;5.37;;;;;;;;;;5285017;26;20271;-83
2024/04/17 05:51:38;;;;;;;8.27;4.83;;;;;;;;;;5312994;26;20286;-83
2024/04/17 05:54:04;;;;;;;8.20;5.13;;;;;;;;;;5301576;26;20382;-82
2024/04/17 05:56:29;;;;;;;7.73;4.90;;;;;;;;;;5283476;26;20350;-85
2024/04/17 05:58:55;;;;;;;5.90;4.80;;;;;;;;;;5280343;26;20260;-82
2024/04/17 06:01:20;;;;;;;7.40;5.00;;;;;;;;;;5314781;26;20344;-83
2024/04/17 06:03:46;;;;;;;5.50;4.83;;;;;;;;;;5290723;26;20608;-84
2024/04/17 06:06:11;;;;;;;7.80;5.00;;;;;;;;;;5316948;26;21139;-83
2024/04/17 06:08:44;;;;;;;7.60;4.77;;;;;;;;;;5285089;26;20255;-84
2024/04/17 06:11:09;;;;;;;4.93;4.50;;;;;;;;;;5310562;26;20568;-84
2024/04/17 06:13:37;;;;;;;9.70;4.87;;;;;;;;;;5318011;26;20251;-84
2024/04/17 06:16:03;;;;;;;8.30;5.27;;;;;;;;;;5340737;26;20286;-84
2024/04/17 06:18:30;;;;;;;7.57;4.70;;;;;;;;;;5289060;26;20259;-82
2024/04/17 06:21:01;;;;;;;7.20;4.40;;;;;;;;;;5337238;26;20292;-84
2024/04/17 06:23:30;;;;;;;7.57;4.20;;;;;;;;;;5313280;26;20255;-82
2024/04/17 06:25:55;;;;;;;5.43;3.67;;;;;;;;;;5284445;26;20247;-83
2024/04/17 06:28:23;;;;;;;7.73;3.67;;;;;;;;;;5330723;26;20286;-83
2024/04/17 06:30:49;;;;;;;6.57;3.60;;;;;;;;;;5319848;26;20248;-83
2024/04/17 06:33:21;;;;;;;8.30;4.00;;;;;;;;;;5311281;26;20294;-82
2024/04/17 06:35:49;;;;;;;7.87;3.60;;;;;;;;;;5290581;26;20277;-84
2024/04/17 06:38:14;;;;;;;7.00;3.80;;;;;;;;;;5310967;26;20263;-84
2024/04/17 06:40:40;;;;;;;5.60;3.10;;;;;;;;;;5342072;26;20256;-83
2024/04/17 06:43:06;;;;;;;7.17;3.50;;;;;;;;;;5304008;26;20319;-84
2024/04/17 06:45:35;;;;;;;7.53;3.83;;;;;;;;;;5304936;26;20715;-84
2024/04/17 06:48:00;;;;;;;8.20;3.40;;;;;;;;;;5284335;26;20274;-83
2024/04/17 06:50:26;;;;;;;6.67;3.80;;;;;;;;;;5343237;26;20326;-84
2024/04/17 06:52:51;;;;;;;5.80;3.40;;;;;;;;;;5310744;26;20264;-84
2024/04/17 06:55:17;;;;;;;5.33;3.40;;;;;;;;;;5312183;26;20383;-84
2024/04/17 06:57:42;;;;;;;5.37;3.27;;;;;;;;;;5285639;26;20355;-80
2024/04/17 07:00:13;;;;;;;5.17;3.17;;;;;;;;;;5333636;26;20252;-80
2024/04/17 07:02:38;;;;;;;3.87;2.67;;;;;;;;;;5307017;26;20315;-80
2024/04/17 07:05:06;;;;;;;5.00;2.80;;;;;;;;;;5334332;26;20260;-81
2024/04/17 07:07:32;;;;;;;5.57;2.70;;;;;;;;;;5337727;26;20316;-80
2024/04/17 07:09:59;;;;;;;4.40;2.93;;;;;;;;;;5338268;26;20270;-80
2024/04/17 07:12:25;;;;;;;9.37;2.97;;;;;;;;;;5306297;26;20351;-81
2024/04/17 07:14:50;;;;;;;5.90;2.83;;;;;;;;;;5304967;26;20256;-81
2024/04/17 07:17:16;;;;;;;6.63;3.17;;;;;;;;;;5334353;26;20328;-80
2024/04/17 07:19:41;;;;;;;4.40;3.30;;;;;;;;;;5301057;26;20255;-80
2024/04/17 07:22:07;;;;;;;4.50;2.70;;;;;;;;;;5336613;26;20634;-80
2024/04/17 07:24:35;;;;;;;3.23;2.73;;;;;;;;;;5334827;26;20251;-82
2024/04/17 07:27:00;;;;;;;5.83;3.33;;;;;;;;;;5305893;26;20251;-82
2024/04/17 07:29:26;;;;;;;4.60;2.87;;;;;;;;;;5335911;26;20271;-81
2024/04/17 07:31:51;;;;;;;6.07;3.10;;;;;;;;;;5334782;26;20338;-80
2024/04/17 07:34:17;;;;;;;2.93;2.50;;;;;;;;;;5334431;26;20254;-81
2024/04/17 07:36:42;;;;;;;5.33;2.60;;;;;;;;;;5337485;26;20261;-81
2024/04/17 07:39:10;;;;;;;4.30;2.97;;;;;;;;;;5336446;26;20262;-81
2024/04/17 07:41:36;;;;;;;5.50;2.53;;;;;;;;;;5294459;26;20258;-80
2024/04/17 07:44:01;;;;;;;6.13;3.07;;;;;;;;;;5342453;26;20255;-80
2024/04/17 07:46:27;;;;;;;3.83;2.90;;;;;;;;;;5363286;26;20282;-80
2024/04/17 07:48:55;;;;;;;6.47;2.97;;;;;;;;;;5338026;26;20259;-81
2024/04/17 07:51:21;;;;;;;4.00;3.20;;;;;;;;;;5310831;26;20259;-81
2024/04/17 07:53:46;;;;;;;4.37;3.07;;;;;;;;;;5313169;26;20813;-81
2024/04/17 07:56:12;;;;;;;5.47;3.00;;;;;;;;;;5307351;26;20330;-80
2024/04/17 07:58:37;;;;;;;4.80;2.60;;;;;;;;;;5317513;26;20285;-81
2024/04/17 08:01:03;;;;;;;4.37;2.63;;;;;;;;;;5342907;26;20358;-80
2024/04/17 08:03:29;;;;;;;5.57;3.33;;;;;;;;;;5343919;26;20357;-80
2024/04/17 08:05:54;;;;;;;5.17;2.70;;;;;;;;;;5337314;26;20298;-82
2024/04/17 08:08:20;;;;;;;4.97;3.00;;;;;;;;;;5317362;26;20295;-81
2024/04/17 08:10:45;;;;;;;4.97;2.67;;;;;;;;;;5287499;26;20724;-81
2024/04/17 08:13:11;;;;;;;4.87;2.90;;;;;;;;;;5313833;26;20251;-82
2024/04/17 08:15:41;;;;;;;3.63;2.63;;;;;;;;;;5312950;26;20332;-81
2024/04/17 08:18:07;;;;;;;5.60;2.80;;;;;;;;;;5306503;26;20263;-80
2024/04/17 08:20:34;;;;;;;4.43;2.37;;;;;;;;;;5336382;26;20714;-82
2024/04/17 08:23:00;;;;;;;2.67;2.10;;;;;;;;;;5303169;26;20357;-82
2024/04/17 08:25:28;;;;;;;3.67;2.37;;;;;;;;;;5334037;26;20355;-81
2024/04/17 08:27:56;;;;;;;3.23;1.90;;;;;;;;;;5336610;26;20247;-82
2024/04/17 08:30:21;;;;;;;4.27;2.00;;;;;;;;;;5288929;26;20307;-82
2024/04/17 08:32:47;;;;;;;4.03;1.77;;;;;;;;;;5309539;26;20297;-80
2024/04/17 08:35:16;;;;;;;3.53;2.10;;;;;;;;;;5277889;26;20615;-79
2024/04/17 08:37:43;;;;;;;4.00;1.73;;;;;;;;;;5337669;26;20258;-80
2024/04/17 08:40:09;;;;;;;2.77;2.27;;;;;;;;;;5318373;26;20832;-79
2024/04/17 08:42:35;;;;;;;3.43;1.93;;;;;;;;;;5317757;26;20740;-81
2024/04/17 08:45:06;;;;;;;3.03;2.17;;;;;;;;;;5332921;26;20278;-81
2024/04/17 08:47:31;;;;;;;4.23;2.40;;;;;;;;;;5335494;26;20262;-80
2024/04/17 08:49:59;;;;;;;3.27;2.23;;;;;;;;;;5307378;26;20293;-80
2024/04/17 08:52:25;;;;;;;4.43;2.10;;;;;;;;;;5347182;26;20334;-80
2024/04/17 08:54:50;;;;;;;2.47;2.00;;;;;;;;;;5311161;26;20322;-81
2024/04/17 08:57:16;;;;;;;4.23;2.30;;;;;;;;;;5306958;26;20534;-81
2024/04/17 08:59:41;;;;;;;2.93;1.90;;;;;;;;;;5304513;26;21308;-80
2024/04/17 09:02:13;;;;;;;2.70;2.17;;;;;;;;;;5310273;26;21143;-82
2024/04/17 09:04:39;;;;;;;4.67;2.20;;;;;;;;;;5303263;26;20252;-82
2024/04/17 09:07:05;;;;;;;2.87;2.07;;;;;;;;;;5279098;26;20255;-81
2024/04/17 09:09:33;;;;;;;3.47;2.00;;;;;;;;;;5291676;26;20336;-81
2024/04/17 09:11:59;;;;;;;2.80;2.00;;;;;;;;;;5337702;26;20275;-81
2024/04/17 09:14:25;;;;;;;3.53;2.27;;;;;;;;;;5335298;26;20345;-80
2024/04/17 09:16:50;;;;;;;3.30;2.23;;;;;;;;;;5318605;26;20397;-79
2024/04/17 09:19:16;;;;;;;4.07;2.60;;;;;;;;;;5303093;26;20708;-80
2024/04/17 09:21:41;;;;;;;2.97;2.40;;;;;;;;;;5278286;26;20959;-79
2024/04/17 09:24:07;;;;;;;2.83;2.43;;;;;;;;;;5337412;26;20617;-80
2024/04/17 09:26:32;;;;;;;3.67;2.57;;;;;;;;;;5331860;26;20281;-80
2024/04/17 09:28:58;;;;;;;2.97;2.20;;;;;;;;;;5313330;26;20290;-79
2024/04/17 09:31:23;;;;;;;3.47;2.40;;;;;;;;;;5333479;26;20312;-80
2024/04/17 09:33:49;;;;;;;3.03;2.00;;;;;;;;;;5339848;26;20312;-81
2024/04/17 09:36:15;;;;;;;2.80;2.10;;;;;;;;;;5334131;26;20255;-81
2024/04/17 09:38:43;;;;;;;2.57;2.00;;;;;;;;;;5336414;26;20271;-81
2024/04/17 09:41:09;;;;;;;3.43;1.87;;;;;;;;;;5332875;26;20305;-78
2024/04/17 09:43:45;;;;;;;2.97;2.00;;;;;;;;;;5277881;26;20302;-80
2024/04/17 09:46:14;;;;;;;3.03;2.00;;;;;;;;;;5277296;26;20264;-81
2024/04/17 09:48:42;;;;;;;4.93;2.20;;;;;;;;;;5365589;26;20303;-80
2024/04/17 09:51:12;;;;;;;4.87;2.00;;;;;;;;;;5308795;26;20359;-80
2024/04/17 09:53:50;;;;;;;2.87;2.30;;;;;;;;;;5336420;26;20255;-79
2024/04/17 09:56:18;;;;;;;2.60;2.07;;;;;;;;;;5337793;26;20263;-80
2024/04/17 09:58:46;;;;;;;2.37;1.80;;;;;;;;;;5332148;26;20252;-78
2024/04/17 10:01:12;;;;;;;2.30;1.67;;;;;;;;;;5332190;26;20466;-79
2024/04/17 10:03:38;;;;;;;2.87;1.80;;;;;;;;;;5308263;26;20260;-78
2024/04/17 10:06:03;;;;;;;2.07;1.70;;;;;;;;;;5338596;26;20285;-79
2024/04/17 10:08:34;;;;;;;1.67;1.53;;;;;;;;;;5310978;26;20263;-79
2024/04/17 10:10:59;;;;;;;2.50;1.53;;;;;;;;;;5347036;26;20261;-80
2024/04/17 10:13:27;;;;;;;3.47;1.20;;;;;;;;;;5347975;26;20333;-80
2024/04/17 10:15:55;;;;;;;1.83;1.53;;;;;;;;;;5310613;26;20282;-80
2024/04/17 10:18:23;;;;;;;1.90;1.30;;;;;;;;;;5341623;26;20609;-80
2024/04/17 10:20:51;;;;;;;2.73;1.47;;;;;;;;;;5347128;26;20322;-79
2024/04/17 10:23:17;;;;;;;1.67;1.50;;;;;;;;;;5300244;26;20286;-80
2024/04/17 10:25:46;;;;;;;3.30;1.30;;;;;;;;;;5273079;26;21055;-80
2024/04/17 10:28:17;;;;;;;2.93;1.60;;;;;;;;;;5343969;26;20259;-80
2024/04/17 10:30:46;;;;;;;3.53;2.13;;;;;;;;;;5356571;26;20319;-80
2024/04/17 10:33:31;;;;;;;1.97;1.80;;;;;;;;;;5298801;26;20247;-81
2024/04/17 10:35:59;;;;;;;3.33;1.67;;;;;;;;;;5285137;26;20851;-80
2024/04/17 10:38:28;;;;;;;2.97;1.97;;;;;;;;;;5276519;26;20260;-82
2024/04/17 10:40:55;;;;;;;3.40;1.80;;;;;;;;;;5307652;26;20286;-83
2024/04/17 10:43:24;;;;;;;1.97;1.60;;;;;;;;;;5337153;26;20306;-83
2024/04/17 10:45:56;;;;;;;2.43;1.77;;;;;;;;;;5309300;26;20350;-85
2024/04/17 10:48:22;;;;;;;2.80;1.80;;;;;;;;;;5310320;26;20302;-84
2024/04/17 10:50:47;;;;;;;1.75;1.20;;;;;;;;;;5335222;26;20307;-83
2024/04/17 10:53:13;;;;;;;1.73;1.50;;;;;;;;;;5278459;26;20258;-85
2024/04/17 10:55:38;;;;;;;2.10;1.70;;;;;;;;;;5308310;26;20295;-84
2024/04/17 10:58:04;;;;;;;1.98;1.40;;;;;;;;;;5283591;26;20251;-82
2024/04/17 11:00:30;;;;;;;1.75;1.55;;;;;;;;;;5306667;26;20263;-84
2024/04/17 11:02:58;;;;;;;1.88;1.52;;;;;;;;;;5282243;26;20259;-84
2024/04/17 11:05:25;;;;;;;1.88;1.27;;;;;;;;;;5307449;26;20266;-81
2024/04/17 11:07:53;;;;;;;2.58;1.40;;;;;;;;;;5292601;26;20348;-82
2024/04/17 11:10:21;;;;;;;1.80;1.10;;;;;;;;;;5283721;26;20263;-83
2024/04/17 11:12:46;;;;;;;1.30;1.20;;;;;;;;;;5269003;26;20286;-83
2024/04/17 11:15:13;;;;;;;1.20;1.10;;;;;;;;;;5295220;26;20298;-82
2024/04/17 11:17:45;;;;;;;1.92;1.13;;;;;;;;;;5331448;26;20374;-83
2024/04/17 11:20:15;;;;;;;1.23;1.10;;;;;;;;;;5295332;26;20263;-81
2024/04/17 11:22:43;;;;;;;2.58;1.10;;;;;;;;;;5339185;26;20356;-82
2024/04/17 11:25:13;;;;;;;1.42;1.10;;;;;;;;;;5300405;26;20255;-85
2024/04/17 11:27:43;;;;;;;1.38;1.00;;;;;;;;;;5291003;26;20356;-80
2024/04/17 11:30:18;;;;;;;2.15;1.38;;;;;;;;;;5336300;26;20321;-79
2024/04/17 11:32:44;;;;;;;4.10;1.27;;;;;;;;;;5341478;26;20314;-79
2024/04/17 11:35:14;;;;;;;1.38;1.25;;;;;;;;;;5272595;26;20255;-79
2024/04/17 11:37:41;;;;;;;1.80;1.17;;;;;;;;;;5301237;26;21062;-80
2024/04/17 11:40:10;;;;;;;1.40;1.20;;;;;;;;;;5270515;26;20259;-81
2024/04/17 11:42:40;;;;;;;1.40;1.10;;;;;;;;;;5297739;26;20260;-81
2024/04/17 11:45:08;;;;;;;1.33;1.10;;;;;;;;;;5313288;26;20259;-80
2024/04/17 11:47:37;;;;;;;2.47;1.20;;;;;;;;;;5282346;26;20289;-80
2024/04/17 11:50:10;;;;;;;2.50;1.30;;;;;;;;;;5303094;26;20328;-79
2024/04/17 11:52:36;;;;;;;1.30;1.20;;;;;;;;;;5289284;26;20352;-82
2024/04/17 11:55:02;;;;;;;2.33;1.00;;;;;;;;;;5274431;26;20267;-81
2024/04/17 11:57:30;;;;;;;1.27;1.00;;;;;;;;;;5266183;26;20260;-79
2024/04/17 11:59:57;;;;;;;1.23;1.00;;;;;;;;;;5333695;26;20326;-81
2024/04/17 12:02:23;;;;;;;1.70;1.10;;;;;;;;;;5305967;26;20271;-80
2024/04/17 12:04:49;;;;;;;1.50;1.00;;;;;;;;;;5295169;26;20260;-81
2024/04/17 12:07:15;;;;;;;1.65;1.10;;;;;;;;;;5339827;26;20286;-79
2024/04/17 12:09:42;;;;;;;3.80;1.20;;;;;;;;;;5326674;26;20297;-79
2024/04/17 12:12:08;;;;;;;1.98;1.20;;;;;;;;;;5315801;26;20254;-79
2024/04/17 12:14:33;;;;;;;2.90;1.20;;;;;;;;;;5366145;26;20302;-80
2024/04/17 12:16:59;;;;;;;3.35;1.13;;;;;;;;;;5333578;26;20259;-77
2024/04/17 12:19:24;;;;;;;2.42;1.10;;;;;;;;;;5284709;26;20298;-80
2024/04/17 12:21:50;;;;;;;1.95;1.20;;;;;;;;;;5312803;26;20260;-78
2024/04/17 12:26:49;;;;;;;1.85;1.10;;;;;;;;;;5334471;26;20280;-79
2024/04/17 12:27:07;;;;;;;1.38;0.90;;;;;;;;;;5316494;26;20302;-78
2024/04/17 12:29:32;;;;;;;2.90;1.40;;;;;;;;;;5295417;26;20289;-78
2024/04/17 12:31:58;;;;;;;2.38;0.90;;;;;;;;;;5355560;26;20252;-81
2024/04/17 12:34:26;;;;;;;3.05;1.13;;;;;;;;;;5300423;26;20264;-79
2024/04/17 12:36:51;;;;;;;1.90;1.00;;;;;;;;;;5329870;26;20267;-79
2024/04/17 12:39:17;;;;;;;1.58;0.90;;;;;;;;;;5293318;26;20286;-79
2024/04/17 12:41:45;;;;;;;2.22;1.20;;;;;;;;;;5337914;26;20300;-79
2024/04/17 12:44:13;;;;;;;4.25;1.00;;;;;;;;;;5311210;26;20293;-79
2024/04/17 12:46:41;;;;;;;2.00;0.90;;;;;;;;;;5278727;26;20255;-79
2024/04/17 12:49:07;;;;;;;1.75;0.85;;;;;;;;;;5311606;26;20707;-78
2024/04/17 12:51:32;;;;;;;1.52;1.15;;;;;;;;;;5334491;26;20258;-79
2024/04/17 12:53:58;;;;;;;1.35;0.90;;;;;;;;;;5268442;26;20290;-79
2024/04/17 12:56:23;;;;;;;1.58;0.95;;;;;;;;;;5331682;26;20319;-78
2024/04/17 12:58:49;;;;;;;2.03;1.00;;;;;;;;;;5271334;26;20353;-78
2024/04/17 13:01:15;;;;;;;1.77;1.00;;;;;;;;;;5303565;26;20795;-78
2024/04/17 13:03:42;;;;;;;1.27;0.90;;;;;;;;;;5334427;26;20248;-80
2024/04/17 13:06:08;;;;;;;2.07;0.97;;;;;;;;;;5355513;26;20251;-79
2024/04/17 13:08:33;;;;;;;2.73;1.37;;;;;;;;;;5270060;26;20266;-79
2024/04/17 13:11:01;;;;;;;2.17;0.80;;;;;;;;;;5268343;26;20255;-80
2024/04/17 13:13:27;;;;;;;3.07;1.10;;;;;;;;;;5304666;26;20320;-78
2024/04/17 13:15:54;;;;;;;2.90;1.00;;;;;;;;;;5336276;26;20270;-78
2024/04/17 13:18:24;;;;;;;2.63;0.90;;;;;;;;;;5310814;26;20863;-77
2024/04/17 13:20:56;;;;;;;2.77;1.17;;;;;;;;;;5331176;26;20267;-80
2024/04/17 13:23:24;;;;;;;1.07;0.97;;;;;;;;;;5337457;26;20259;-78
2024/04/17 13:26:00;;;;;;;2.30;0.90;;;;;;;;;;5339091;26;20256;-78
2024/04/17 13:28:28;;;;;;;2.40;0.93;;;;;;;;;;5339810;26;20286;-80
2024/04/17 13:31:00;;;;;;;1.03;0.93;;;;;;;;;;5330613;26;20814;-81
2024/04/17 13:33:26;;;;;;;0.90;0.77;;;;;;;;;;5322398;26;20298;-78
2024/04/17 13:35:58;;;;;;;2.00;1.03;;;;;;;;;;5293608;26;20670;-80
2024/04/17 13:38:25;;;;;;;2.67;0.97;;;;;;;;;;5335772;26;20252;-80
2024/04/17 13:40:59;;;;;;;2.33;1.13;;;;;;;;;;5322977;26;20274;-80
2024/04/17 13:43:25;;;;;;;1.10;1.00;;;;;;;;;;5353732;26;20254;-79
2024/04/17 13:45:50;;;;;;;1.57;0.87;;;;;;;;;;5302525;26;21166;-80
2024/04/17 13:48:18;;;;;;;1.87;1.00;;;;;;;;;;5280310;26;20263;-80
2024/04/17 13:50:43;;;;;;;1.03;0.90;;;;;;;;;;5302255;26;20344;-81
2024/04/17 13:53:11;;;;;;;3.90;1.03;;;;;;;;;;5275435;26;20282;-82
2024/04/17 13:55:37;;;;;;;1.20;0.87;;;;;;;;;;5296734;26;20259;-78
2024/04/17 13:58:03;;;;;;;1.77;1.20;;;;;;;;;;5328402;26;20260;-80
2024/04/17 14:00:31;;;;;;;1.47;0.77;;;;;;;;;;5331400;26;20266;-80
2024/04/17 14:02:56;;;;;;;1.63;1.03;;;;;;;;;;5294045;26;20260;-78
2024/04/17 14:05:25;;;;;;;1.50;0.90;;;;;;;;;;5294676;26;20282;-79
2024/04/17 14:07:53;;;;;;;1.97;0.87;;;;;;;;;;5315310;26;21131;-78
2024/04/17 14:10:20;;;;;;;1.20;0.97;;;;;;;;;;5318811;26;20338;-79
2024/04/17 14:12:45;;;;;;;1.92;0.93;;;;;;;;;;5308687;26;20256;-78
2024/04/17 14:15:12;;;;;;;1.80;1.13;;;;;;;;;;5363718;26;20309;-78
2024/04/17 14:17:38;;;;;;;3.20;1.10;;;;;;;;;;5341828;26;20816;-77
2024/04/17 14:20:04;;;;;;;1.67;1.10;;;;;;;;;;5272015;26;20258;-79
2024/04/17 14:22:29;;;;;;;2.53;1.10;;;;;;;;;;5295292;26;20252;-79
2024/04/17 14:24:55;;;;;;;2.47;1.17;;;;;;;;;;5303056;26;20254;-80
2024/04/17 14:27:23;;;;;;;1.40;0.87;;;;;;;;;;5279835;26;20297;-81
2024/04/17 14:29:49;;;;;;;3.43;1.00;;;;;;;;;;5354206;26;20337;-80
2024/04/17 14:32:17;;;;;;;2.00;1.00;;;;;;;;;;5298509;26;20346;-81
2024/04/17 14:34:43;;;;;;;3.50;1.03;;;;;;;;;;5329886;26;20259;-78
2024/04/17 14:37:08;;;;;;;2.00;0.93;;;;;;;;;;5304177;26;20338;-79
2024/04/17 14:39:34;;;;;;;2.37;1.13;;;;;;;;;;5303342;26;20259;-79
2024/04/17 14:41:59;;;;;;;1.02;0.80;;;;;;;;;;5334123;26;20259;-79
2024/04/17 14:44:27;;;;;;;2.20;1.17;;;;;;;;;;5344342;26;20285;-85